createdAt,value
2023-10-19T00:01:19.582Z,99462.06
2023-10-19T00:03:46.244Z,99462.69
2023-10-19T00:06:12.825Z,99445.63
2023-10-19T00:08:42.801Z,99448.03
2023-10-19T00:11:22.807Z,99448.59
2023-10-19T00:13:55.433Z,99446.81
2023-10-19T00:16:30.496Z,99445.81
2023-10-19T00:19:00.881Z,99432.94
2023-10-19T00:21:28.506Z,99428.56
2023-10-19T00:24:04.627Z,99426.66
2023-10-19T00:26:31.588Z,99436.00
2023-10-19T00:28:58.460Z,99434.16
2023-10-19T00:31:26.348Z,99432.59
2023-10-19T00:33:53.223Z,99430.03
2023-10-19T00:36:21.886Z,99430.81
2023-10-19T00:38:51.989Z,99432.28
2023-10-19T00:41:28.725Z,99431.47
2023-10-19T00:44:05.268Z,99424.59
2023-10-19T00:46:44.771Z,99433.78
2023-10-19T00:49:16.628Z,99426.00
2023-10-19T00:51:51.860Z,99417.41
2023-10-19T00:54:36.546Z,99418.09
2023-10-19T00:57:09.231Z,99412.78
2023-10-19T00:59:50.952Z,99410.09
2023-10-19T01:02:18.783Z,99403.97
2023-10-19T01:04:51.605Z,99401.31
2023-10-19T01:07:28.862Z,99403.72
2023-10-19T01:10:01.332Z,99405.28
2023-10-19T01:12:34.827Z,99405.94
2023-10-19T01:15:15.337Z,99406.69
2023-10-19T01:17:45.256Z,99398.91
2023-10-19T01:20:24.418Z,99395.28
2023-10-19T01:23:11.416Z,99393.34
2023-10-19T01:26:00.211Z,99394.84
2023-10-19T01:28:30.738Z,99390.47
2023-10-19T01:30:57.421Z,99399.63
2023-10-19T01:33:24.301Z,99393.50
2023-10-19T01:36:09.448Z,99385.63
2023-10-19T01:38:35.927Z,99384.66
2023-10-19T01:41:08.990Z,99385.41
2023-10-19T01:43:35.523Z,99381.75
2023-10-19T01:46:06.505Z,99381.66
2023-10-19T01:48:36.230Z,99381.50
2023-10-19T01:51:05.191Z,99371.97
2023-10-19T01:53:37.890Z,99373.53
2023-10-19T01:56:06.762Z,99383.53
2023-10-19T01:58:37.733Z,99382.50
2023-10-19T02:01:21.018Z,99379.78
2023-10-19T02:03:56.119Z,99371.00
2023-10-19T02:06:43.023Z,99366.44
2023-10-19T02:09:23.602Z,99360.22
2023-10-19T02:11:54.165Z,99363.44
2023-10-19T02:14:21.127Z,99357.22
2023-10-19T02:16:53.632Z,99361.97
2023-10-19T02:19:21.611Z,99359.13
2023-10-19T02:21:49.469Z,99358.94
2023-10-19T02:24:16.377Z,99360.44
2023-10-19T02:26:44.695Z,99359.44
2023-10-19T02:29:11.531Z,99360.91
2023-10-19T02:31:41.200Z,99362.56
2023-10-19T02:34:11.435Z,99358.81
2023-10-19T02:36:39.640Z,99356.97
2023-10-19T02:39:10.869Z,99352.59
2023-10-19T02:41:42.665Z,99352.50
2023-10-19T02:44:20.350Z,99354.03
2023-10-19T02:46:49.248Z,99347.91
2023-10-19T02:49:19.783Z,99335.88
2023-10-19T02:51:47.141Z,99345.94
2023-10-19T02:54:21.573Z,99349.25
2023-10-19T02:56:51.251Z,99354.31
2023-10-19T02:59:23.057Z,99343.94
2023-10-19T03:01:51.438Z,99353.03
2023-10-19T03:04:18.608Z,99345.13
2023-10-19T03:06:45.307Z,99343.38
2023-10-19T03:09:14.793Z,99344.13
2023-10-19T03:11:42.614Z,99345.56
2023-10-19T03:14:10.211Z,99345.31
2023-10-19T03:16:43.652Z,99346.94
2023-10-19T03:19:10.479Z,99346.13
2023-10-19T03:21:49.934Z,99343.34
2023-10-19T03:24:24.656Z,99333.91
2023-10-19T03:26:51.915Z,99331.25
2023-10-19T03:29:32.208Z,99332.81
2023-10-19T03:32:02.749Z,99319.06
2023-10-19T03:34:33.447Z,99323.34
2023-10-19T03:37:08.307Z,99322.34
2023-10-19T03:39:35.601Z,99322.97
2023-10-19T03:42:02.397Z,99323.63
2023-10-19T03:44:40.278Z,99318.47
2023-10-19T03:47:12.452Z,99316.63
2023-10-19T03:49:40.413Z,99309.66
2023-10-19T03:52:10.785Z,99311.38
2023-10-19T03:54:41.271Z,99309.66
2023-10-19T03:57:23.865Z,99307.63
2023-10-19T03:59:51.566Z,99298.97
2023-10-19T04:02:21.909Z,99302.19
2023-10-19T04:04:56.732Z,99301.16
2023-10-19T04:07:27.745Z,99300.25
2023-10-19T04:10:07.878Z,99297.69
2023-10-19T04:12:36.671Z,99299.31
2023-10-19T04:15:27.624Z,99300.13
2023-10-19T04:17:56.146Z,99304.16
2023-10-19T04:20:26.183Z,99286.91
2023-10-19T04:22:52.849Z,99286.81
2023-10-19T04:25:21.006Z,99278.38
2023-10-19T04:27:50.044Z,99287.00
2023-10-19T04:30:17.204Z,99282.16
2023-10-19T04:32:45.191Z,99287.50
2023-10-19T04:35:14.408Z,99292.91
2023-10-19T04:37:44.004Z,99302.56
2023-10-19T04:40:11.671Z,99302.66
2023-10-19T04:42:41.023Z,99296.81
2023-10-19T04:45:08.431Z,99297.00
2023-10-19T04:47:38.120Z,99301.41
2023-10-19T04:50:08.425Z,99296.38
2023-10-19T04:52:35.233Z,99301.78
2023-10-19T04:55:02.805Z,99299.22
2023-10-19T04:57:29.699Z,99304.47
2023-10-19T04:59:56.574Z,99306.22
2023-10-19T05:02:23.244Z,99311.34
2023-10-19T05:04:50.127Z,99309.50
2023-10-19T05:07:20.018Z,99302.69
2023-10-19T05:09:47.879Z,99317.09
2023-10-19T05:12:15.918Z,99310.94
2023-10-19T05:14:44.200Z,99315.16
2023-10-19T05:17:11.503Z,99312.41
2023-10-19T05:19:39.420Z,99311.28
2023-10-19T05:22:08.709Z,99318.72
2023-10-19T05:24:35.873Z,99320.38
2023-10-19T05:27:02.870Z,99321.91
2023-10-19T05:29:29.337Z,99324.38
2023-10-19T05:31:56.047Z,99334.75
2023-10-19T05:34:23.296Z,99330.44
2023-10-19T05:36:52.935Z,99330.22
2023-10-19T05:39:19.564Z,99330.06
2023-10-19T05:41:46.054Z,99335.09
2023-10-19T05:44:12.738Z,99340.88
2023-10-19T05:46:41.775Z,99343.34
2023-10-19T05:49:09.076Z,99337.06
2023-10-19T05:51:35.764Z,99339.34
2023-10-19T05:54:05.665Z,99337.88
2023-10-19T05:56:35.488Z,99340.38
2023-10-19T05:59:03.145Z,99340.28
2023-10-19T06:01:29.844Z,99345.31
2023-10-19T06:03:57.482Z,99341.81
2023-10-19T06:06:24.278Z,99339.25
2023-10-19T06:08:55.068Z,99350.13
2023-10-19T06:11:22.644Z,99350.13
2023-10-19T06:13:49.327Z,99349.31
2023-10-19T06:16:16.192Z,99347.56
2023-10-19T06:18:44.804Z,99347.41
2023-10-19T06:21:13.405Z,99353.34
2023-10-19T06:23:40.094Z,99349.03
2023-10-19T06:26:12.435Z,99343.81
2023-10-19T06:28:41.052Z,99344.72
2023-10-19T06:31:08.181Z,99350.66
2023-10-19T06:33:34.882Z,99348.94
2023-10-19T06:36:04.311Z,99350.50
2023-10-19T06:38:32.649Z,99353.06
2023-10-19T06:41:00.533Z,99349.53
2023-10-19T06:43:31.768Z,99352.22
2023-10-19T06:45:59.616Z,99349.66
2023-10-19T06:48:26.295Z,99354.78
2023-10-19T06:50:52.991Z,99358.22
2023-10-19T06:53:19.719Z,99359.00
2023-10-19T06:55:46.355Z,99366.63
2023-10-19T06:58:13.670Z,99376.00
2023-10-19T07:00:45.250Z,99376.81
2023-10-19T07:03:14.877Z,99381.03
2023-10-19T07:05:41.649Z,99386.91
2023-10-19T07:08:08.276Z,99389.47
2023-10-19T07:10:36.092Z,99391.94
2023-10-19T07:13:03.121Z,99389.28
2023-10-19T07:15:31.396Z,99396.88
2023-10-19T07:17:58.102Z,99392.47
2023-10-19T07:20:33.067Z,99399.16
2023-10-19T07:23:04.427Z,99395.69
2023-10-19T07:25:32.491Z,99401.56
2023-10-19T07:28:01.164Z,99399.81
2023-10-19T07:30:28.065Z,99396.22
2023-10-19T07:33:00.789Z,99396.84
2023-10-19T07:35:28.767Z,99401.72
2023-10-19T07:37:57.868Z,99396.47
2023-10-19T07:40:25.505Z,99399.56
2023-10-19T07:42:54.529Z,99402.66
2023-10-19T07:45:21.158Z,99401.63
2023-10-19T07:47:47.881Z,99401.53
2023-10-19T07:50:18.299Z,99407.28
2023-10-19T07:52:51.150Z,99402.75
2023-10-19T07:55:18.981Z,99391.34
2023-10-19T07:57:45.940Z,99402.25
2023-10-19T08:00:17.273Z,99403.06
2023-10-19T08:02:46.384Z,99402.03
2023-10-19T08:05:14.363Z,99400.19
2023-10-19T08:07:43.767Z,99402.56
2023-10-19T08:10:12.610Z,99393.00
2023-10-19T08:12:42.500Z,99402.28
2023-10-19T08:15:12.309Z,99395.16
2023-10-19T08:17:42.826Z,99396.69
2023-10-19T08:20:17.091Z,99390.53
2023-10-19T08:22:45.042Z,99398.88
2023-10-19T08:25:16.243Z,99399.50
2023-10-19T08:27:45.782Z,99397.63
2023-10-19T08:30:17.628Z,99397.22
2023-10-19T08:32:49.145Z,99395.38
2023-10-19T08:35:19.274Z,99403.69
2023-10-19T08:37:47.359Z,99395.84
2023-10-19T08:40:16.204Z,99395.66
2023-10-19T08:42:47.232Z,99392.88
2023-10-19T08:45:14.888Z,99395.16
2023-10-19T08:47:59.002Z,99380.19
2023-10-19T08:50:27.898Z,99386.66
2023-10-19T08:52:55.821Z,99383.75
2023-10-19T08:55:33.514Z,99387.88
2023-10-19T08:58:10.800Z,99385.00
2023-10-19T09:00:49.788Z,99382.00
2023-10-19T09:03:18.544Z,99385.00
2023-10-19T09:05:49.099Z,99389.13
2023-10-19T09:08:21.239Z,99387.00
2023-10-19T09:10:50.551Z,99384.75
2023-10-19T09:13:20.379Z,99388.28
2023-10-19T09:15:56.473Z,99378.84
2023-10-19T09:18:28.699Z,99385.25
2023-10-19T09:21:22.319Z,99381.78
2023-10-19T09:23:50.335Z,99369.75
2023-10-19T09:26:17.845Z,99363.31
2023-10-19T09:28:48.579Z,99375.75
2023-10-19T09:31:17.501Z,99382.34
2023-10-19T09:33:49.970Z,99378.22
2023-10-19T09:36:16.793Z,99375.22
2023-10-19T09:38:52.641Z,99375.22
2023-10-19T09:41:23.302Z,99376.88
2023-10-19T09:43:51.680Z,99377.81
2023-10-19T09:46:32.624Z,99370.78
2023-10-19T09:48:59.406Z,99367.97
2023-10-19T09:51:26.299Z,99368.44
2023-10-19T09:54:01.948Z,99362.91
2023-10-19T09:56:36.969Z,99358.09
2023-10-19T09:59:08.148Z,99358.59
2023-10-19T10:02:15.716Z,99351.13
2023-10-19T10:04:43.494Z,99338.50
2023-10-19T10:07:10.658Z,99337.75
2023-10-19T10:09:41.413Z,99343.88
2023-10-19T10:12:16.306Z,99354.00
2023-10-19T10:14:55.601Z,99349.28
2023-10-19T10:17:24.085Z,99357.56
2023-10-19T10:19:50.664Z,99355.44
2023-10-19T10:22:22.492Z,99360.75
2023-10-19T10:24:57.140Z,99361.69
2023-10-19T10:27:24.688Z,99369.50
2023-10-19T10:29:59.755Z,99365.66
2023-10-19T10:32:49.280Z,99363.53
2023-10-19T10:35:42.157Z,99351.75
2023-10-19T10:38:15.865Z,99342.13
2023-10-19T10:40:52.021Z,99345.38
2023-10-19T10:43:20.776Z,99343.88
2023-10-19T10:45:47.576Z,99344.81
2023-10-19T10:48:20.319Z,99338.13
2023-10-19T10:50:47.689Z,99339.09
2023-10-19T10:53:18.571Z,99328.59
2023-10-19T10:55:45.144Z,99331.06
2023-10-19T10:58:16.879Z,99326.59
2023-10-19T11:00:44.587Z,99315.41
2023-10-19T11:03:11.359Z,99314.47
2023-10-19T11:05:39.110Z,99319.97
2023-10-19T11:08:25.680Z,99322.63
2023-10-19T11:10:54.150Z,99306.75
2023-10-19T11:13:25.419Z,99307.31
2023-10-19T11:15:59.755Z,99306.13
2023-10-19T11:18:46.613Z,99310.22
2023-10-19T11:21:15.867Z,99311.34
2023-10-19T11:23:43.700Z,99313.56
2023-10-19T11:26:12.023Z,99312.22
2023-10-19T11:28:48.744Z,99314.41
2023-10-19T11:31:19.449Z,99302.75
2023-10-19T11:33:50.012Z,99306.31
2023-10-19T11:36:17.438Z,99298.84
2023-10-19T11:38:46.041Z,99312.94
2023-10-19T11:41:16.719Z,99309.19
2023-10-19T11:43:43.917Z,99304.34
2023-10-19T11:46:11.124Z,99292.94
2023-10-19T11:48:37.852Z,99290.63
2023-10-19T11:51:05.001Z,99289.16
2023-10-19T11:53:37.764Z,99299.00
2023-10-19T11:56:07.118Z,99294.66
2023-10-19T11:58:35.827Z,99286.72
2023-10-19T12:01:06.334Z,99289.44
2023-10-19T12:03:36.411Z,99277.69
2023-10-19T12:06:05.445Z,99276.88
2023-10-19T12:08:32.017Z,99270.03
2023-10-19T12:10:58.824Z,99273.31
2023-10-19T12:13:25.534Z,99268.28
2023-10-19T12:15:56.282Z,99274.00
2023-10-19T12:18:23.036Z,99271.81
2023-10-19T12:20:49.633Z,99276.56
2023-10-19T12:23:16.313Z,99279.72
2023-10-19T12:28:16.851Z,99268.22
2023-10-19T12:30:43.699Z,99257.56
2023-10-19T12:33:13.478Z,99258.66
2023-10-19T12:35:58.790Z,99252.09
2023-10-19T12:38:26.482Z,99257.56
2023-10-19T12:40:55.022Z,99253.19
2023-10-19T12:43:24.420Z,99251.69
2023-10-19T12:45:59.015Z,99251.00
2023-10-19T12:48:34.230Z,99250.44
2023-10-19T12:51:02.678Z,99255.06
2023-10-19T12:53:30.855Z,99253.94
2023-10-19T12:55:57.626Z,99247.78
2023-10-19T12:58:24.199Z,99244.38
2023-10-19T13:00:50.728Z,99242.72
2023-10-19T13:03:20.120Z,99235.91
2023-10-19T13:05:47.878Z,99252.09
2023-10-19T13:08:15.182Z,99263.22
2023-10-19T13:10:44.131Z,99259.53
2023-10-19T13:13:16.039Z,99256.75
2023-10-19T13:15:46.081Z,99258.91
2023-10-19T13:18:14.516Z,99253.31
2023-10-19T13:20:45.344Z,99247.91
2023-10-19T13:23:18.253Z,99241.50
2023-10-19T13:25:51.080Z,99248.69
2023-10-19T13:28:18.990Z,99248.00
2023-10-19T13:30:54.471Z,99241.31
2023-10-19T13:33:22.543Z,99244.97
2023-10-19T13:35:49.704Z,99241.00
2023-10-19T13:38:18.165Z,99239.09
2023-10-19T13:40:48.236Z,99240.88
2023-10-19T13:43:15.402Z,99229.16
2023-10-19T13:45:46.318Z,99227.63
2023-10-19T13:48:14.373Z,99226.94
2023-10-19T13:50:49.037Z,99223.66
2023-10-19T13:53:16.812Z,99223.94
2023-10-19T13:55:43.964Z,99219.69
2023-10-19T13:58:10.574Z,99211.00
2023-10-19T14:00:36.975Z,99209.66
2023-10-19T14:03:05.832Z,99200.72
2023-10-19T14:05:49.313Z,99209.59
2023-10-19T14:08:18.037Z,99210.16
2023-10-19T14:10:44.929Z,99211.34
2023-10-19T14:13:15.736Z,99216.09
2023-10-19T14:15:43.381Z,99205.31
2023-10-19T14:18:11.408Z,99204.72
2023-10-19T14:20:39.949Z,99208.63
2023-10-19T14:23:06.914Z,99199.34
2023-10-19T14:25:38.184Z,99200.41
2023-10-19T14:28:07.946Z,99198.91
2023-10-19T14:30:34.928Z,99195.38
2023-10-19T14:33:01.700Z,99197.28
2023-10-19T14:35:28.764Z,99190.47
2023-10-19T14:37:57.558Z,99184.59
2023-10-19T14:40:27.338Z,99190.03
2023-10-19T14:42:55.402Z,99175.47
2023-10-19T14:45:27.008Z,99172.28
2023-10-19T14:48:00.637Z,99163.88
2023-10-19T14:50:28.276Z,99164.69
2023-10-19T14:52:58.025Z,99157.84
2023-10-19T14:55:25.259Z,99158.00
2023-10-19T14:57:57.240Z,99154.72
2023-10-19T15:00:35.818Z,99148.72
2023-10-19T15:03:08.915Z,99145.47
2023-10-19T15:05:36.965Z,99132.53
2023-10-19T15:08:08.441Z,99133.63
2023-10-19T15:10:40.819Z,99131.16
2023-10-19T15:13:07.342Z,99127.06
2023-10-19T15:15:34.076Z,99120.38
2023-10-19T15:18:00.937Z,99118.03
2023-10-19T15:20:29.214Z,99112.19
2023-10-19T15:22:56.008Z,99111.59
2023-10-19T15:25:26.026Z,99106.69
2023-10-19T15:27:53.155Z,99103.28
2023-10-19T15:30:21.603Z,99104.25
2023-10-19T15:32:49.584Z,99094.84
2023-10-19T15:35:22.278Z,99098.38
2023-10-19T15:37:50.606Z,99100.97
2023-10-19T15:40:21.035Z,99101.75
2023-10-19T15:42:48.142Z,99114.59
2023-10-19T15:45:19.426Z,99120.56
2023-10-19T15:47:49.497Z,99122.88
2023-10-19T15:50:41.592Z,99126.75
2023-10-19T15:53:08.546Z,99121.75
2023-10-19T15:55:35.125Z,99123.00
2023-10-19T15:58:01.609Z,99122.06
2023-10-19T16:00:29.249Z,99117.63
2023-10-19T16:02:55.933Z,99101.28
2023-10-19T16:05:23.089Z,99103.19
2023-10-19T16:07:51.063Z,99099.75
2023-10-19T16:10:18.599Z,99097.44
2023-10-19T16:12:45.157Z,99090.19
2023-10-19T16:15:15.985Z,99089.75
2023-10-19T16:17:44.530Z,99084.25
2023-10-19T16:20:14.118Z,99090.06
2023-10-19T16:22:41.038Z,99092.31
2023-10-19T16:25:08.052Z,99093.50
2023-10-19T16:27:34.770Z,99096.84
2023-10-19T16:30:02.337Z,99081.84
2023-10-19T16:32:31.524Z,99079.78
2023-10-19T16:34:58.898Z,99091.16
2023-10-19T16:37:26.009Z,99092.34
2023-10-19T16:39:53.933Z,99085.22
2023-10-19T16:42:20.406Z,99093.28
2023-10-19T16:44:47.540Z,99097.31
2023-10-19T16:47:14.079Z,99097.56
2023-10-19T16:49:40.601Z,99101.19
2023-10-19T16:52:08.280Z,99098.03
2023-10-19T16:54:35.003Z,99104.25
2023-10-19T16:57:02.622Z,99092.41
2023-10-19T16:59:30.764Z,99090.88
2023-10-19T17:01:57.938Z,99101.34
2023-10-19T17:04:26.719Z,99100.63
2023-10-19T17:06:53.292Z,99109.31
2023-10-19T17:09:21.604Z,99108.47
2023-10-19T17:11:49.637Z,99117.16
2023-10-19T17:14:17.310Z,99116.34
2023-10-19T17:16:44.137Z,99114.69
2023-10-19T17:19:11.743Z,99118.34
2023-10-19T17:21:39.641Z,99120.09
2023-10-19T17:24:10.156Z,99130.31
2023-10-19T17:26:36.660Z,99126.78
2023-10-19T17:29:03.356Z,99125.03
2023-10-19T17:31:30.527Z,99132.63
2023-10-19T17:33:58.004Z,99123.97
2023-10-19T17:36:24.588Z,99120.69
2023-10-19T17:38:51.085Z,99125.16
2023-10-19T17:41:17.616Z,99123.50
2023-10-19T17:43:44.425Z,99121.97
2023-10-19T17:46:11.738Z,99117.53
2023-10-19T17:48:39.249Z,99116.81
2023-10-19T17:51:13.894Z,99104.88
2023-10-19T17:53:40.684Z,99103.22
2023-10-19T17:56:07.869Z,99092.06
2023-10-19T17:58:35.295Z,99095.63
2023-10-19T18:01:05.843Z,99085.53
2023-10-19T18:03:37.594Z,99074.41
2023-10-19T18:06:07.659Z,99074.41
2023-10-19T18:08:35.268Z,99066.78
2023-10-19T18:11:01.877Z,99066.19
2023-10-19T18:13:28.432Z,99057.75
2023-10-19T18:15:55.021Z,99058.00
2023-10-19T18:18:22.488Z,99055.66
2023-10-19T18:20:49.351Z,99052.50
2023-10-19T18:23:16.156Z,99043.38
2023-10-19T18:25:44.403Z,99049.81
2023-10-19T18:28:11.201Z,99045.81
2023-10-19T18:30:37.854Z,99051.47
2023-10-19T18:33:06.100Z,99046.53
2023-10-19T18:35:33.641Z,99047.72
2023-10-19T18:38:00.321Z,99060.97
2023-10-19T18:40:34.289Z,99050.19
2023-10-19T18:43:01.368Z,99046.31
2023-10-19T18:45:28.043Z,99061.19
2023-10-19T18:47:54.800Z,99066.66
2023-10-19T18:50:34.455Z,99068.75
2023-10-19T18:53:02.086Z,99068.03
2023-10-19T18:55:32.448Z,99074.38
2023-10-19T18:58:02.218Z,99063.34
2023-10-19T19:00:29.614Z,99068.72
2023-10-19T19:02:56.746Z,99062.06
2023-10-19T19:05:23.296Z,99064.97
2023-10-19T19:07:49.973Z,99064.59
2023-10-19T19:10:17.093Z,99063.09
2023-10-19T19:12:44.395Z,99060.84
2023-10-19T19:15:12.329Z,99055.81
2023-10-19T19:17:40.290Z,99049.94
2023-10-19T19:20:12.690Z,99037.31
2023-10-19T19:22:40.317Z,99036.59
2023-10-19T19:25:08.685Z,99046.06
2023-10-19T19:27:35.487Z,99029.81
2023-10-19T19:30:02.030Z,99022.91
2023-10-19T19:32:28.899Z,99023.72
2023-10-19T19:34:56.051Z,99025.38
2023-10-19T19:37:22.645Z,99026.41
2023-10-19T19:39:49.137Z,99018.81
2023-10-19T19:42:15.595Z,99021.50
2023-10-19T19:44:43.150Z,99019.97
2023-10-19T19:47:10.069Z,99021.94
2023-10-19T19:49:36.592Z,99025.56
2023-10-19T19:52:03.127Z,99027.44
2023-10-19T19:54:29.771Z,99026.59
2023-10-19T19:56:56.738Z,99028.47
2023-10-19T19:59:23.663Z,99026.13
2023-10-19T20:01:50.365Z,99023.78
2023-10-19T20:04:16.962Z,99024.81
2023-10-19T20:06:43.624Z,99023.28
2023-10-19T20:09:12.700Z,99018.16
2023-10-19T20:11:40.439Z,99021.75
2023-10-19T20:14:07.957Z,99020.22
2023-10-19T20:16:34.769Z,99016.00
2023-10-19T20:19:01.987Z,99022.91
2023-10-19T20:21:29.366Z,99029.81
2023-10-19T20:23:57.679Z,99032.50
2023-10-19T20:26:24.532Z,99022.31
2023-10-19T20:28:51.133Z,99018.19
2023-10-19T20:31:17.645Z,99006.19
2023-10-19T20:33:44.331Z,98999.50
2023-10-19T20:36:10.824Z,98989.09
2023-10-19T20:38:37.436Z,98979.63
2023-10-19T20:41:04.033Z,98961.72
2023-10-19T20:43:30.515Z,98960.81
2023-10-19T20:45:57.023Z,98963.38
2023-10-19T20:48:24.093Z,98966.88
2023-10-19T20:50:50.559Z,98972.13
2023-10-19T20:53:18.162Z,98966.19
2023-10-19T20:55:45.909Z,98965.34
2023-10-19T20:58:13.636Z,98974.81
2023-10-19T21:00:40.337Z,98962.06
2023-10-19T21:03:06.944Z,98974.94
2023-10-19T21:05:33.749Z,98963.81
2023-10-19T21:08:00.478Z,98966.38
2023-10-19T21:10:27.114Z,98964.78
2023-10-19T21:12:53.763Z,98969.78
2023-10-19T21:15:20.257Z,98966.38
2023-10-19T21:17:50.491Z,98948.28
2023-10-19T21:20:19.254Z,98944.75
2023-10-19T21:22:47.544Z,98937.88
2023-10-19T21:25:18.908Z,98948.06
2023-10-19T21:27:47.884Z,98950.50
2023-10-19T21:30:14.829Z,98945.97
2023-10-19T21:32:43.217Z,98930.41
2023-10-19T21:35:10.612Z,98934.50
2023-10-19T21:37:37.542Z,98924.81
2023-10-19T21:40:05.624Z,98922.81
2023-10-19T21:42:32.587Z,98927.75
2023-10-19T21:44:59.348Z,98914.78
2023-10-19T21:47:26.992Z,98902.72
2023-10-19T21:49:56.909Z,98900.75
2023-10-19T21:52:26.182Z,98895.47
2023-10-19T21:54:53.925Z,98908.94
2023-10-19T21:57:20.451Z,98895.94
2023-10-19T21:59:47.190Z,98887.97
2023-10-19T22:02:14.133Z,98882.84
2023-10-19T22:04:42.603Z,98877.69
2023-10-19T22:07:09.163Z,98869.97
2023-10-19T22:09:35.746Z,98866.59
2023-10-19T22:12:02.230Z,98859.66
2023-10-19T22:14:29.534Z,98873.50
2023-10-19T22:16:57.481Z,98878.66
2023-10-19T22:19:28.186Z,98872.66
2023-10-19T22:21:57.645Z,98872.66
2023-10-19T22:24:24.334Z,98873.59
2023-10-19T22:26:54.134Z,98877.00
2023-10-19T22:29:20.752Z,98878.66
2023-10-19T22:31:51.981Z,98871.72
2023-10-19T22:34:19.400Z,98874.19
2023-10-19T22:36:45.944Z,98871.63
2023-10-19T22:39:13.621Z,98886.13
2023-10-19T22:41:40.114Z,98883.31
2023-10-19T22:44:08.254Z,98890.91
2023-10-19T22:46:39.892Z,98891.75
2023-10-19T22:49:06.905Z,98889.97
2023-10-19T22:51:33.540Z,98889.06
2023-10-19T22:54:00.205Z,98896.78
2023-10-19T22:56:26.836Z,98900.06
2023-10-19T22:58:54.269Z,98911.16
2023-10-19T23:01:21.869Z,98912.81
2023-10-19T23:03:48.869Z,98912.81
2023-10-19T23:06:15.551Z,98899.69
2023-10-19T23:08:42.712Z,98890.31
2023-10-19T23:11:10.615Z,98887.63
2023-10-19T23:13:39.317Z,98882.41
2023-10-19T23:16:07.051Z,98884.97
2023-10-19T23:18:36.871Z,98874.53
2023-10-19T23:21:04.728Z,98858.16
2023-10-19T23:23:32.054Z,98857.34
2023-10-19T23:26:02.802Z,98858.97
2023-10-19T23:28:30.429Z,98848.69
2023-10-19T23:31:08.205Z,98840.94
2023-10-19T23:33:34.983Z,98837.56
2023-10-19T23:36:02.404Z,98821.16
2023-10-19T23:38:29.133Z,98822.94
2023-10-19T23:40:56.653Z,98830.66
2023-10-19T23:43:23.858Z,98831.59
2023-10-19T23:45:51.595Z,98824.69
2023-10-19T23:48:21.489Z,98814.41
2023-10-19T23:50:49.038Z,98813.56
2023-10-19T23:53:18.834Z,98812.75
2023-10-19T23:55:48.110Z,98811.81
2023-10-19T23:58:15.894Z,98801.53
